Ana Sayfa
METAR-TAF:

METAR-TAF

Havaalanları :

Bentonville Municipal Airport/Louise M Thaden Field

Bentonville, Arkansas, Amerika Birleşik Devletleri

Enlem: 36-21N, Boylam: 094-13W, yükseklik: 395 m

Güncel hava durumu gözlemi

Rapor saat 00:56 UTC de 51 dakika önce yapıldı.
Rüzgar güney/güneybatıdan 5 kt
Sıcaklık 8°C
Nem 46%
Basınç 1021 hPa
Görüş mesafesi: 16.1 km
7000 ft yükseklikte parçalı çok bulutlu
9000 ft yükseklikte çok bulutlu

METAR: KVBT 280056Z AUTO 20005KT 10SM BKN070 OVC090 08/M03 A3014 RMK AO2 SLP220 T00831033 TSNO

Saat: 19:47 (01:47 UTC)


TAF: eksik

4.000'den fazla havaalanı için hava durumu gözlemleri ve tahminleri (METAR ve TAF raporları).

Kullanılabilir istasyonlar harita üzerinde sarı ve kırmızı noktalarla gösterilir.

İstasyonun adını görmek için fareyi noktanın üzerinde gezdirin.

Sonrasında hava gözlem ve tahminlerini görmek için tıklayın.

Haritayı değiştirmek için: yaklaştırmak için siyah artı işaretli yeşil düğmeye ve uzaklaştırmak için de eksi işaretli düğmeye hızla tıklayın; bitişik haritalar için yeşil okları kullanın.


METAR-TAF: